createdAt,value
2022-09-15T00:02:20.391Z,96137.50
2022-09-15T00:04:46.862Z,96130.66
2022-09-15T00:07:13.190Z,96148.75
2022-09-15T00:09:39.535Z,96143.88
2022-09-15T00:12:06.020Z,96131.13
2022-09-15T00:14:32.493Z,96144.25
2022-09-15T00:16:58.847Z,96139.41
2022-09-15T00:19:25.231Z,96128.81
2022-09-15T00:21:51.614Z,96134.44
2022-09-15T00:24:18.027Z,96133.34
2022-09-15T00:26:44.361Z,96129.53
2022-09-15T00:29:11.117Z,96133.34
2022-09-15T00:31:37.498Z,96119.44
2022-09-15T00:34:05.142Z,96127.28
2022-09-15T00:36:32.129Z,96135.22
2022-09-15T00:38:58.850Z,96128.03
2022-09-15T00:41:25.945Z,96118.72
2022-09-15T00:43:57.173Z,96126.19
2022-09-15T00:46:27.733Z,96123.94
2022-09-15T00:49:07.160Z,96135.25
2022-09-15T00:52:05.580Z,96144.66
2022-09-15T00:54:38.334Z,96137.91
2022-09-15T00:57:09.813Z,96129.97
2022-09-15T00:59:39.386Z,96129.59
2022-09-15T01:02:13.370Z,96129.94
2022-09-15T01:04:39.866Z,96134.81
2022-09-15T01:07:09.376Z,96129.84
2022-09-15T01:09:41.589Z,96134.44
2022-09-15T01:12:07.937Z,96139.28
2022-09-15T01:14:34.418Z,96139.66
2022-09-15T01:17:10.155Z,96144.53
2022-09-15T01:20:26.032Z,96132.47
2022-09-15T01:23:10.022Z,96147.84
2022-09-15T01:26:00.600Z,96149.72
2022-09-15T01:28:38.930Z,96148.19
2022-09-15T01:31:16.706Z,96138.84
2022-09-15T01:33:51.063Z,96142.19
2022-09-15T01:36:46.844Z,96140.69
2022-09-15T01:39:24.493Z,96141.78
2022-09-15T01:41:56.686Z,96144.03
2022-09-15T01:44:27.684Z,96145.88
2022-09-15T01:47:01.481Z,96132.34
2022-09-15T01:49:36.134Z,96151.88
2022-09-15T01:52:02.885Z,96144.75
2022-09-15T01:54:44.188Z,96136.88
2022-09-15T01:57:10.601Z,96138.41
2022-09-15T01:59:37.054Z,96134.66
2022-09-15T02:02:17.797Z,96136.88
2022-09-15T02:04:56.704Z,96137.28
2022-09-15T02:07:43.093Z,96136.53
2022-09-15T02:10:24.695Z,96135.03
2022-09-15T02:13:01.312Z,96131.66
2022-09-15T02:15:42.235Z,96123.34
2022-09-15T02:18:13.038Z,96130.88
2022-09-15T02:20:49.941Z,96131.31
2022-09-15T02:23:35.132Z,96132.34
2022-09-15T02:26:08.413Z,96127.81
2022-09-15T02:28:38.677Z,96131.22
2022-09-15T02:31:08.587Z,96126.25
2022-09-15T02:33:45.028Z,96141.25
2022-09-15T02:36:15.680Z,96131.00
2022-09-15T02:38:47.589Z,96128.34
2022-09-15T02:41:14.572Z,96140.78
2022-09-15T02:43:46.036Z,96145.94
2022-09-15T02:46:13.785Z,96146.31
2022-09-15T02:48:40.136Z,96143.25
2022-09-15T02:51:06.587Z,96147.34
2022-09-15T02:53:32.906Z,96144.59
2022-09-15T02:55:59.464Z,96148.34
2022-09-15T02:58:25.910Z,96145.69
2022-09-15T03:00:55.645Z,96139.91
2022-09-15T03:03:22.196Z,96144.75
2022-09-15T03:05:48.552Z,96157.09
2022-09-15T03:08:14.929Z,96152.13
2022-09-15T03:10:41.340Z,96172.63
2022-09-15T03:13:08.569Z,96162.91
2022-09-15T03:15:34.928Z,96164.38
2022-09-15T03:18:01.593Z,96158.66
2022-09-15T03:20:28.644Z,96169.16
2022-09-15T03:22:55.584Z,96163.34
2022-09-15T03:25:22.075Z,96171.28
2022-09-15T03:27:48.450Z,96159.81
2022-09-15T03:30:15.219Z,96164.28
2022-09-15T03:32:41.845Z,96158.56
2022-09-15T03:35:08.614Z,96179.97
2022-09-15T03:37:35.613Z,96173.81
2022-09-15T03:40:04.138Z,96174.09
2022-09-15T03:42:30.756Z,96178.19
2022-09-15T03:44:57.204Z,96188.34
2022-09-15T03:47:23.540Z,96189.31
2022-09-15T03:49:49.901Z,96199.44
2022-09-15T03:52:16.243Z,96191.91
2022-09-15T03:54:42.588Z,96191.28
2022-09-15T03:57:08.961Z,96202.44
2022-09-15T03:59:35.307Z,96215.50
2022-09-15T04:02:01.764Z,96209.91
2022-09-15T04:04:28.419Z,96216.69
2022-09-15T04:06:54.756Z,96206.72
2022-09-15T04:09:21.460Z,96214.50
2022-09-15T04:11:47.875Z,96221.78
2022-09-15T04:14:14.436Z,96219.41
2022-09-15T04:16:40.898Z,96211.44
2022-09-15T04:19:07.496Z,96213.16
2022-09-15T04:21:33.921Z,96227.63
2022-09-15T04:24:00.343Z,96227.28
2022-09-15T04:26:32.220Z,96228.44
2022-09-15T04:29:03.912Z,96235.09
2022-09-15T04:31:30.956Z,96229.66
2022-09-15T04:33:57.352Z,96234.09
2022-09-15T04:36:25.654Z,96233.34
2022-09-15T04:38:52.457Z,96226.88
2022-09-15T04:41:19.672Z,96229.84
2022-09-15T04:43:46.863Z,96235.81
2022-09-15T04:46:15.117Z,96232.09
2022-09-15T04:48:41.619Z,96246.81
2022-09-15T04:51:12.068Z,96243.63
2022-09-15T04:53:39.032Z,96249.19
2022-09-15T04:56:14.223Z,96240.69
2022-09-15T04:58:43.521Z,96233.47
2022-09-15T05:01:24.894Z,96244.41
2022-09-15T05:03:51.858Z,96250.28
2022-09-15T05:06:21.046Z,96251.63
2022-09-15T05:08:49.026Z,96256.09
2022-09-15T05:11:15.921Z,96250.38
2022-09-15T05:13:42.699Z,96252.41
2022-09-15T05:16:14.457Z,96252.72
2022-09-15T05:18:42.330Z,96249.19
2022-09-15T05:21:11.471Z,96254.50
2022-09-15T05:23:38.286Z,96263.16
2022-09-15T05:26:07.059Z,96276.53
2022-09-15T05:28:35.057Z,96271.59
2022-09-15T05:31:01.643Z,96267.28
2022-09-15T05:33:28.145Z,96269.91
2022-09-15T05:36:00.505Z,96270.16
2022-09-15T05:38:29.824Z,96287.91
2022-09-15T05:41:02.646Z,96287.72
2022-09-15T05:43:31.246Z,96283.34
2022-09-15T05:45:57.571Z,96279.06
2022-09-15T05:48:24.543Z,96284.53
2022-09-15T05:50:53.524Z,96291.84
2022-09-15T05:53:20.798Z,96290.56
2022-09-15T05:55:47.310Z,96275.13
2022-09-15T05:58:13.971Z,96293.34
2022-09-15T06:00:41.523Z,96294.03
2022-09-15T06:03:14.540Z,96303.19
2022-09-15T06:05:41.248Z,96302.69
2022-09-15T06:08:07.655Z,96304.97
2022-09-15T06:10:34.026Z,96306.03
2022-09-15T06:13:00.358Z,96299.56
2022-09-15T06:15:26.725Z,96309.31
2022-09-15T06:17:53.087Z,96307.06
2022-09-15T06:20:19.736Z,96296.63
2022-09-15T06:22:46.253Z,96294.03
2022-09-15T06:25:13.227Z,96306.72
2022-09-15T06:27:41.082Z,96290.25
2022-09-15T06:30:10.293Z,96305.72
2022-09-15T06:32:36.755Z,96293.25
2022-09-15T06:35:07.104Z,96293.50
2022-09-15T06:37:34.308Z,96286.78
2022-09-15T06:40:00.986Z,96315.56
2022-09-15T06:42:27.879Z,96320.88
2022-09-15T06:44:54.300Z,96328.69
2022-09-15T06:47:20.767Z,96335.84
2022-09-15T06:49:47.106Z,96329.44
2022-09-15T06:52:13.488Z,96346.44
2022-09-15T06:54:39.830Z,96332.31
2022-09-15T06:57:06.173Z,96334.69
2022-09-15T06:59:32.582Z,96342.41
2022-09-15T07:02:04.123Z,96348.03
2022-09-15T07:04:31.421Z,96342.91
2022-09-15T07:06:57.770Z,96345.19
2022-09-15T07:09:24.165Z,96347.63
2022-09-15T07:11:50.626Z,96345.69
2022-09-15T07:14:17.000Z,96351.09
2022-09-15T07:16:43.493Z,96349.97
2022-09-15T07:19:10.130Z,96344.19
2022-09-15T07:21:37.268Z,96347.59
2022-09-15T07:24:07.303Z,96356.69
2022-09-15T07:26:34.516Z,96369.75
2022-09-15T07:29:05.460Z,96366.81
2022-09-15T07:31:34.589Z,96350.16
2022-09-15T07:34:02.118Z,96364.22
2022-09-15T07:36:29.386Z,96370.16
2022-09-15T07:38:55.734Z,96357.91
2022-09-15T07:41:25.803Z,96371.53
2022-09-15T07:43:54.268Z,96366.34
2022-09-15T07:46:22.415Z,96384.34
2022-09-15T07:48:50.708Z,96396.94
2022-09-15T07:51:17.693Z,96380.03
2022-09-15T07:53:45.608Z,96379.53
2022-09-15T07:56:12.598Z,96382.56
2022-09-15T07:58:39.040Z,96385.31
2022-09-15T08:01:09.083Z,96381.72
2022-09-15T08:03:35.496Z,96396.50
2022-09-15T08:06:03.416Z,96385.91
2022-09-15T08:08:30.027Z,96410.88
2022-09-15T08:10:56.708Z,96412.44
2022-09-15T08:13:24.264Z,96408.59
2022-09-15T08:15:51.046Z,96424.06
2022-09-15T08:18:17.527Z,96409.00
2022-09-15T08:20:44.014Z,96416.16
2022-09-15T08:23:11.311Z,96418.69
2022-09-15T08:25:39.016Z,96420.69
2022-09-15T08:28:05.751Z,96412.00
2022-09-15T08:30:32.127Z,96429.94
2022-09-15T08:32:58.486Z,96427.25
2022-09-15T08:35:25.028Z,96424.06
2022-09-15T08:37:54.452Z,96425.66
2022-09-15T08:40:26.590Z,96425.66
2022-09-15T08:42:57.186Z,96422.69
2022-09-15T08:45:27.714Z,96438.69
2022-09-15T08:47:59.933Z,96439.44
2022-09-15T08:50:31.147Z,96445.31
2022-09-15T08:53:09.726Z,96442.38
2022-09-15T08:55:41.788Z,96439.06
2022-09-15T08:58:18.101Z,96450.69
2022-09-15T09:00:51.743Z,96463.03
2022-09-15T09:03:42.535Z,96453.06
2022-09-15T09:06:11.773Z,96463.63
2022-09-15T09:09:24.541Z,96454.75
2022-09-15T09:12:25.231Z,96451.63
2022-09-15T09:15:18.803Z,96448.69
2022-09-15T09:18:05.061Z,96446.88
2022-09-15T09:20:55.384Z,96452.50
2022-09-15T09:23:26.392Z,96456.13
2022-09-15T09:25:52.845Z,96442.16
2022-09-15T09:28:30.347Z,96459.50
2022-09-15T09:31:07.990Z,96455.44
2022-09-15T09:33:47.282Z,96452.56
2022-09-15T09:36:14.817Z,96450.16
2022-09-15T09:38:43.786Z,96457.31
2022-09-15T09:41:14.936Z,96457.63
2022-09-15T09:43:44.168Z,96466.50
2022-09-15T09:46:16.404Z,96439.78
2022-09-15T09:48:52.123Z,96446.88
2022-09-15T09:51:39.809Z,96452.94
2022-09-15T09:54:16.329Z,96448.66
2022-09-15T09:56:44.301Z,96460.44
2022-09-15T09:59:35.578Z,96458.03
2022-09-15T10:02:07.916Z,96459.41
2022-09-15T10:04:34.278Z,96445.34
2022-09-15T10:07:00.854Z,96461.13
2022-09-15T10:09:32.550Z,96459.81
2022-09-15T10:12:01.432Z,96467.94
2022-09-15T10:14:30.055Z,96469.41
2022-09-15T10:17:04.405Z,96461.06
2022-09-15T10:19:33.535Z,96460.91
2022-09-15T10:22:01.895Z,96467.09
2022-09-15T10:24:33.271Z,96467.88
2022-09-15T10:27:15.716Z,96470.84
2022-09-15T10:29:42.109Z,96470.22
2022-09-15T10:32:29.735Z,96462.84
2022-09-15T10:35:14.640Z,96458.78
2022-09-15T10:38:04.975Z,96458.69
2022-09-15T10:40:38.455Z,96462.41
2022-09-15T10:43:29.872Z,96472.44
2022-09-15T10:46:12.523Z,96466.28
2022-09-15T10:49:19.116Z,96472.44
2022-09-15T10:52:16.023Z,96476.47
2022-09-15T10:55:03.761Z,96477.56
2022-09-15T10:57:52.012Z,96480.56
2022-09-15T11:00:24.052Z,96480.03
2022-09-15T11:03:19.904Z,96476.72
2022-09-15T11:06:01.171Z,96487.22
2022-09-15T11:08:31.850Z,96491.78
2022-09-15T11:11:16.562Z,96478.09
2022-09-15T11:14:11.084Z,96477.91
2022-09-15T11:16:38.726Z,96476.06
2022-09-15T11:19:39.593Z,96476.81
2022-09-15T11:22:16.443Z,96484.38
2022-09-15T11:24:49.759Z,96486.13
2022-09-15T11:27:37.248Z,96493.16
2022-09-15T11:30:10.812Z,96499.81
2022-09-15T11:32:47.808Z,96500.13
2022-09-15T11:35:49.738Z,96496.69
2022-09-15T11:38:37.923Z,96500.47
2022-09-15T11:41:19.236Z,96494.81
2022-09-15T11:44:07.123Z,96513.59
2022-09-15T11:46:53.425Z,96502.72
2022-09-15T11:49:24.921Z,96502.72
2022-09-15T11:51:58.693Z,96495.56
2022-09-15T11:54:40.968Z,96497.56
2022-09-15T11:57:17.950Z,96502.16
2022-09-15T11:59:55.045Z,96498.75
2022-09-15T12:02:32.059Z,96509.97
2022-09-15T12:05:17.356Z,96505.91
2022-09-15T12:08:15.298Z,96507.28
2022-09-15T12:10:46.294Z,96505.34
2022-09-15T12:13:18.662Z,96504.72
2022-09-15T12:15:46.678Z,96514.84
2022-09-15T12:18:38.522Z,96505.47
2022-09-15T12:21:33.946Z,96503.28
2022-09-15T12:24:11.065Z,96512.81
2022-09-15T12:26:38.267Z,96492.94
2022-09-15T12:29:27.643Z,96511.81
2022-09-15T12:32:22.012Z,96514.06
2022-09-15T12:34:56.934Z,96524.06
2022-09-15T12:37:25.445Z,96524.41
2022-09-15T12:39:53.739Z,96531.16
2022-09-15T12:42:26.758Z,96529.47
2022-09-15T12:44:55.743Z,96534.69
2022-09-15T12:47:28.526Z,96535.78
2022-09-15T12:50:00.505Z,96533.03
2022-09-15T12:52:28.495Z,96541.03
2022-09-15T12:55:01.979Z,96536.47
2022-09-15T12:57:30.492Z,96529.38
2022-09-15T13:00:16.940Z,96531.50
2022-09-15T13:02:46.005Z,96534.19
2022-09-15T13:05:12.770Z,96531.16
2022-09-15T13:07:56.932Z,96530.94
2022-09-15T13:10:39.344Z,96520.59
2022-09-15T13:13:39.440Z,96536.03
2022-09-15T13:16:14.838Z,96522.59
2022-09-15T13:18:44.177Z,96536.44
2022-09-15T13:21:15.795Z,96531.78
2022-09-15T13:23:48.095Z,96540.16
2022-09-15T13:26:22.588Z,96527.28
2022-09-15T13:28:51.542Z,96533.28
2022-09-15T13:31:42.408Z,96530.13
2022-09-15T13:41:11.229Z,96536.09
2022-09-15T13:44:29.076Z,96531.16
2022-09-15T13:47:22.189Z,96509.53
2022-09-15T13:50:14.323Z,96517.66
2022-09-15T13:53:05.240Z,96528.81
2022-09-15T13:55:36.679Z,96517.88
2022-09-15T14:00:56.500Z,96520.91
2022-09-15T14:03:39.039Z,96515.31
2022-09-15T14:06:19.008Z,96518.56
2022-09-15T14:08:49.860Z,96517.47
2022-09-15T14:11:23.554Z,96520.47
2022-09-15T14:13:51.212Z,96520.84
2022-09-15T14:16:27.576Z,96526.97
2022-09-15T14:18:57.665Z,96514.50
2022-09-15T14:21:32.657Z,96514.63
2022-09-15T14:24:17.044Z,96512.63
2022-09-15T14:26:43.505Z,96514.22
2022-09-15T14:29:19.019Z,96498.38
2022-09-15T14:31:45.506Z,96508.16
2022-09-15T14:34:19.421Z,96503.00
2022-09-15T14:36:46.395Z,96509.81
2022-09-15T14:39:20.566Z,96507.88
2022-09-15T14:41:47.769Z,96508.22
2022-09-15T14:47:20.601Z,96505.91
2022-09-15T14:49:47.936Z,96508.53
2022-09-15T14:52:33.405Z,96510.78
2022-09-15T14:55:03.683Z,96494.75
2022-09-15T14:57:34.304Z,96507.13
2022-09-15T15:00:08.349Z,96509.41
2022-09-15T15:02:58.816Z,96491.84
2022-09-15T15:05:35.508Z,96499.69
2022-09-15T15:08:05.017Z,96505.84
2022-09-15T15:10:35.713Z,96494.66
2022-09-15T15:13:08.883Z,96499.88
2022-09-15T15:15:37.880Z,96505.44
2022-09-15T15:18:06.381Z,96502.06
2022-09-15T15:20:32.834Z,96507.09
2022-09-15T15:23:19.078Z,96497.19
2022-09-15T15:25:46.953Z,96497.19
2022-09-15T15:28:33.742Z,96514.44
2022-09-15T15:31:12.309Z,96508.75
2022-09-15T15:33:45.948Z,96514.34
2022-09-15T15:36:12.343Z,96494.50
2022-09-15T15:38:47.526Z,96522.69
2022-09-15T15:41:36.080Z,96518.06
2022-09-15T15:44:07.947Z,96514.13
2022-09-15T15:46:52.550Z,96516.31
2022-09-15T15:49:21.248Z,96523.38
2022-09-15T15:51:47.758Z,96513.94
2022-09-15T15:54:14.446Z,96522.28
2022-09-15T15:56:40.884Z,96518.75
2022-09-15T15:59:09.528Z,96528.97
2022-09-15T16:01:35.871Z,96523.31
2022-09-15T16:04:02.424Z,96519.88
2022-09-15T16:06:28.890Z,96523.25
2022-09-15T16:08:58.192Z,96529.59
2022-09-15T16:11:24.607Z,96526.88
2022-09-15T16:13:50.941Z,96519.31
2022-09-15T16:16:20.460Z,96509.13
2022-09-15T16:18:47.263Z,96528.34
2022-09-15T16:21:26.036Z,96529.78
2022-09-15T16:23:52.373Z,96524.50
2022-09-15T16:26:22.695Z,96529.75
2022-09-15T16:28:49.584Z,96513.88
2022-09-15T16:31:16.058Z,96536.47
2022-09-15T16:33:43.390Z,96532.00
2022-09-15T16:36:12.455Z,96516.91
2022-09-15T16:38:40.052Z,96528.97
2022-09-15T16:41:13.236Z,96520.63
2022-09-15T16:43:39.595Z,96524.03
2022-09-15T16:46:06.539Z,96531.09
2022-09-15T16:48:34.138Z,96531.88
2022-09-15T16:53:47.618Z,96538.47
2022-09-15T16:56:15.367Z,96524.56
2022-09-15T16:58:42.255Z,96533.25
2022-09-15T17:01:17.663Z,96518.91
2022-09-15T17:03:44.557Z,96526.75
2022-09-15T17:06:17.537Z,96525.50
2022-09-15T17:08:44.683Z,96517.22
2022-09-15T17:11:19.654Z,96527.78
2022-09-15T17:13:46.830Z,96523.09
2022-09-15T17:16:15.649Z,96531.75
2022-09-15T17:18:42.065Z,96529.81
2022-09-15T17:21:12.209Z,96525.25
2022-09-15T17:23:40.998Z,96539.19
2022-09-15T17:26:12.853Z,96529.00
2022-09-15T17:28:40.164Z,96528.25
2022-09-15T17:31:14.320Z,96524.84
2022-09-15T17:33:41.223Z,96529.00
2022-09-15T17:36:08.086Z,96538.97
2022-09-15T17:38:34.762Z,96559.53
2022-09-15T17:41:01.175Z,96561.34
2022-09-15T17:43:29.557Z,96558.72
2022-09-15T17:45:56.445Z,96564.78
2022-09-15T17:48:23.306Z,96573.66
2022-09-15T17:50:50.289Z,96574.00
2022-09-15T17:53:28.545Z,96573.06
2022-09-15T17:55:55.581Z,96582.84
2022-09-15T17:58:26.520Z,96581.63
2022-09-15T18:00:53.840Z,96580.34
2022-09-15T18:03:29.514Z,96586.09
2022-09-15T18:05:58.361Z,96596.44
2022-09-15T18:08:25.545Z,96617.53
2022-09-15T18:10:51.985Z,96604.31
2022-09-15T18:13:21.497Z,96603.31
2022-09-15T18:15:49.015Z,96615.59
2022-09-15T18:18:21.885Z,96615.78
2022-09-15T18:20:49.796Z,96614.34
2022-09-15T18:23:21.244Z,96610.88
2022-09-15T18:25:48.953Z,96603.22
2022-09-15T18:28:16.213Z,96605.41
2022-09-15T18:30:45.312Z,96605.25
2022-09-15T18:33:17.761Z,96610.03
2022-09-15T18:35:44.561Z,96613.66
2022-09-15T18:38:11.708Z,96612.38
2022-09-15T18:40:38.484Z,96623.56
2022-09-15T18:43:05.482Z,96623.06
2022-09-15T18:45:31.868Z,96620.03
2022-09-15T18:47:58.204Z,96635.44
2022-09-15T18:50:25.487Z,96645.81
2022-09-15T18:52:52.225Z,96627.75
2022-09-15T18:55:22.430Z,96633.31
2022-09-15T18:57:49.283Z,96634.09
2022-09-15T19:00:19.331Z,96610.28
2022-09-15T19:02:47.108Z,96616.47
2022-09-15T19:05:16.722Z,96622.38
2022-09-15T19:07:44.770Z,96623.13
2022-09-15T19:10:13.053Z,96630.63
2022-09-15T19:12:39.804Z,96620.97
2022-09-15T19:15:10.922Z,96631.84
2022-09-15T19:17:38.359Z,96637.94
2022-09-15T19:20:06.798Z,96639.00
2022-09-15T19:22:33.735Z,96632.91
2022-09-15T19:25:00.111Z,96636.63
2022-09-15T19:27:26.764Z,96636.53
2022-09-15T19:29:53.156Z,96636.44
2022-09-15T19:32:20.900Z,96634.63
2022-09-15T19:34:47.464Z,96647.75
2022-09-15T19:37:18.784Z,96646.25
2022-09-15T19:39:45.748Z,96627.94
2022-09-15T19:42:12.660Z,96637.03
2022-09-15T19:44:41.315Z,96632.28
2022-09-15T19:47:08.407Z,96640.88
2022-09-15T19:49:34.914Z,96644.47
2022-09-15T19:52:01.284Z,96634.59
2022-09-15T19:54:30.232Z,96637.97
2022-09-15T19:56:56.618Z,96629.28
2022-09-15T19:59:27.380Z,96636.28
2022-09-15T20:01:56.670Z,96643.75
2022-09-15T20:04:23.128Z,96639.75
2022-09-15T20:06:49.467Z,96639.31
2022-09-15T20:09:15.877Z,96639.63
2022-09-15T20:11:42.407Z,96648.53
2022-09-15T20:14:08.758Z,96647.34
2022-09-15T20:16:35.297Z,96633.34
2022-09-15T20:19:03.914Z,96646.03
2022-09-15T20:21:49.218Z,96635.09
2022-09-15T20:24:16.880Z,96643.66
2022-09-15T20:26:43.227Z,96638.00
2022-09-15T20:29:10.512Z,96639.44
2022-09-15T20:31:36.961Z,96651.94
2022-09-15T20:34:03.299Z,96655.94
2022-09-15T20:36:33.362Z,96649.63
2022-09-15T20:39:00.917Z,96649.44
2022-09-15T20:41:28.466Z,96657.78
2022-09-15T20:43:55.534Z,96649.44
2022-09-15T20:46:24.396Z,96647.47
2022-09-15T20:48:51.700Z,96663.66
2022-09-15T20:51:22.619Z,96644.84
2022-09-15T20:53:51.221Z,96655.28
2022-09-15T20:56:21.041Z,96656.91
2022-09-15T20:58:47.453Z,96657.38
2022-09-15T21:01:16.383Z,96644.09
2022-09-15T21:03:44.348Z,96649.44
2022-09-15T21:06:13.188Z,96651.03
2022-09-15T21:08:39.656Z,96649.72
2022-09-15T21:11:09.685Z,96653.22
2022-09-15T21:13:37.520Z,96643.31
2022-09-15T21:16:07.779Z,96643.66
2022-09-15T21:18:36.776Z,96653.09
2022-09-15T21:21:07.263Z,96648.13
2022-09-15T21:23:36.932Z,96659.41
2022-09-15T21:26:06.313Z,96652.13
2022-09-15T21:28:33.330Z,96673.53
2022-09-15T21:31:04.641Z,96662.91
2022-09-15T21:33:31.703Z,96663.97
2022-09-15T21:36:06.565Z,96659.41
2022-09-15T21:38:37.952Z,96668.63
2022-09-15T21:41:06.090Z,96670.16
2022-09-15T21:43:35.900Z,96681.88
2022-09-15T21:46:04.711Z,96677.63
2022-09-15T21:48:32.201Z,96690.47
2022-09-15T21:50:58.610Z,96692.00
2022-09-15T21:53:25.929Z,96686.00
2022-09-15T21:55:52.463Z,96677.97
2022-09-15T21:58:21.162Z,96684.94
2022-09-15T22:00:48.662Z,96688.75
2022-09-15T22:03:16.118Z,96683.53
2022-09-15T22:05:44.019Z,96674.81
2022-09-15T22:08:12.863Z,96680.91
2022-09-15T22:10:40.561Z,96672.97
2022-09-15T22:13:08.454Z,96676.34
2022-09-15T22:15:35.230Z,96683.84
2022-09-15T22:18:01.940Z,96681.22
2022-09-15T22:20:29.339Z,96679.25
2022-09-15T22:22:56.072Z,96684.06
2022-09-15T22:25:22.619Z,96688.75
2022-09-15T22:27:48.976Z,96692.41
2022-09-15T22:30:15.430Z,96689.81
2022-09-15T22:32:41.780Z,96695.03
2022-09-15T22:35:08.486Z,96695.03
2022-09-15T22:37:35.072Z,96686.00
2022-09-15T22:40:01.608Z,96689.50
2022-09-15T22:42:28.116Z,96687.22
2022-09-15T22:44:54.438Z,96681.22
2022-09-15T22:47:20.772Z,96692.13
2022-09-15T22:49:47.087Z,96690.38
2022-09-15T22:52:13.419Z,96673.88
2022-09-15T22:54:39.760Z,96683.19
2022-09-15T22:57:06.094Z,96685.56
2022-09-15T22:59:32.424Z,96688.09
2022-09-15T23:01:58.899Z,96677.56
2022-09-15T23:04:25.264Z,96690.78
2022-09-15T23:06:51.707Z,96701.56
2022-09-15T23:09:18.273Z,96701.13
2022-09-15T23:11:44.631Z,96687.75
2022-09-15T23:14:15.185Z,96683.41
2022-09-15T23:16:42.981Z,96687.97
2022-09-15T23:19:13.297Z,96695.03
2022-09-15T23:21:39.793Z,96696.34
2022-09-15T23:24:06.408Z,96694.81
2022-09-15T23:26:32.847Z,96693.94
2022-09-15T23:28:59.189Z,96681.88
2022-09-15T23:31:25.755Z,96685.69
2022-09-15T23:33:52.206Z,96690.16
2022-09-15T23:36:19.504Z,96690.88
2022-09-15T23:38:47.467Z,96679.94
2022-09-15T23:41:15.417Z,96680.78
2022-09-15T23:43:41.782Z,96672.00
2022-09-15T23:46:08.770Z,96681.00
2022-09-15T23:48:35.167Z,96679.47
2022-09-15T23:51:02.112Z,96672.97
2022-09-15T23:53:29.271Z,96670.25
2022-09-15T23:55:55.993Z,96672.53
2022-09-15T23:58:22.356Z,96673.28
